KHUM/HUM METAR and TAF weather

Enter ICAO airport designator
Station Type Date Time Source
KHUM METAR 2018/12/12 08:35 UTC NOAA

KHUM 120835Z AUTO 00000KT 2 1/2SM BR CLR 02/02 A3027 RMK AO2 T00170015


Station Type Date Time Source
KHUM Decoded METAR 2018/12/12 08:35 UTC NOAA

Houma-Terrebonne, LA, United States (KHUM) 29-34N 090-40W
Dec 12, 2018 - 03:35 AM EST / 2018.12.12 0835 UTC
Wind: Calm:0
Visibility: 2 1/2 mile(s):0
Sky conditions: clear
Weather: mist
Temperature: 35.1 F (1.7 C)
Dew Point: 34.7 F (1.5 C)
Relative Humidity: 98%
Pressure (altimeter): 30.27 in. Hg (1025 hPa)
ob: KHUM 120835Z AUTO 00000KT 2 1/2SM BR CLR 02/02 A3027 RMK AO2 T00170015
cycle: 8

Station Type Date Time Source
KHUM TAF 2018/12/12 06:22 UTC NOAA

TAF KHUM 120520Z 1206/1306 00000KT 6SM BR FEW250
TEMPO 1208/1212 4SM BR
FM121700 13006KT P6SM BKN220
FM122100 15008KT P6SM OVC070
FM122300 14006KT P6SM OVC050


Example: see airport list